Time;durP1;ratioP1;P1;durP2;ratioP2;P2;SDS_P1;SDS_P2;PMS_P1;PMS_P2;Temp;Humidity;BMP_temperature;BMP_pressure;BME280_temperature;BME280_humidity;BME280_pressure;Samples;Min_cycle;Max_cycle;Signal;HPM_P1;HPM_P2
2022/08/24 00:00:19;;;;;;;;;;;;;;;20.19;100.00;100116.69;3050660;19;1212;-50
2022/08/24 00:01:24;;;;;;;;;;;;;;;20.19;100.00;100122.09;3055351;19;1011;-49
2022/08/24 00:02:25;;;;;;;;;;;;;;;20.19;100.00;100124.81;3055123;19;1135;-50
2022/08/24 00:03:30;;;;;;;;;;;;;;;20.17;100.00;100135.81;3055261;19;1260;-49
2022/08/24 00:04:35;;;;;;;;;;;;;;;20.16;100.00;100128.72;3055201;19;1174;-50
2022/08/24 00:05:40;;;;;;;;;;;;;;;20.16;100.00;100136.84;3055266;19;1127;-50
2022/08/24 00:06:41;;;;;;;;;;;;;;;20.14;100.00;100139.72;3054419;19;1176;-49
2022/08/24 00:07:46;;;;;;;;;;;;;;;20.12;100.00;100138.19;3055613;19;1009;-50
2022/08/24 00:08:49;;;;;;;;;;;;;;;20.09;100.00;100149.34;3055560;19;972;-49
2022/08/24 00:09:53;;;;;;;;;;;;;;;20.07;100.00;100154.06;3055253;19;965;-49
2022/08/24 00:10:55;;;;;;;;;;;;;;;20.05;100.00;100150.66;3055432;19;1137;-50
2022/08/24 00:12:01;;;;;;;;;;;;;;;20.05;100.00;100153.38;3055019;19;1018;-50
2022/08/24 00:13:03;;;;;;;;;;;;;;;20.02;100.00;100153.72;3054792;19;1201;-49
2022/08/24 00:14:10;;;;;;;;;;;;;;;20.02;100.00;100156.44;3055581;19;948;-49
2022/08/24 00:15:13;;;;;;;;;;;;;;;20.02;100.00;100156.44;3055417;19;905;-50
2022/08/24 00:16:18;;;;;;;;;;;;;;;20.01;100.00;100162.84;3047359;19;1247;-50
2022/08/24 00:17:20;;;;;;;;;;;;;;;19.99;100.00;100149.47;3047332;19;980;-50
2022/08/24 00:18:25;;;;;;;;;;;;;;;19.98;100.00;100150.50;3046923;19;1846;-49
2022/08/24 00:19:27;;;;;;;;;;;;;;;19.97;100.00;100156.06;3049906;19;1170;-49
2022/08/24 00:20:32;;;;;;;;;;;;;;;19.97;100.00;100156.06;3050205;19;976;-49
2022/08/24 00:21:34;;;;;;;;;;;;;;;19.95;100.00;100158.06;3050267;19;1107;-49
2022/08/24 00:22:39;;;;;;;;;;;;;;;19.94;100.00;100156.38;3049974;19;1446;-50
2022/08/24 00:23:41;;;;;;;;;;;;;;;19.93;100.00;100165.50;3053588;19;1130;-49
2022/08/24 00:24:46;;;;;;;;;;;;;;;19.92;100.00;100163.84;3054615;19;1083;-49
2022/08/24 00:25:48;;;;;;;;;;;;;;;19.90;100.00;100160.44;3055098;19;917;-50
2022/08/24 00:26:52;;;;;;;;;;;;;;;19.90;100.00;100160.44;3054730;19;1231;-50
2022/08/24 00:27:54;;;;;;;;;;;;;;;19.89;100.00;100158.75;3054840;19;1012;-50
2022/08/24 00:29:00;;;;;;;;;;;;;;;19.89;100.00;100153.31;3055243;19;1194;-49
2022/08/24 00:30:10;;;;;;;;;;;;;;;19.88;100.00;100151.63;3054530;19;891;-49
2022/08/24 00:31:14;;;;;;;;;;;;;;;19.89;100.00;100153.31;3053570;19;1226;-51
2022/08/24 00:32:16;;;;;;;;;;;;;;;19.88;100.00;100151.63;3054520;19;1051;-49
2022/08/24 00:33:21;;;;;;;;;;;;;;;19.88;100.00;100148.91;3054373;19;1075;-49
2022/08/24 00:34:24;;;;;;;;;;;;;;;19.84;100.00;100140.25;3054625;19;881;-49
2022/08/24 00:35:29;;;;;;;;;;;;;;;19.84;100.00;100150.25;3053905;19;1179;-49
2022/08/24 00:36:31;;;;;;;;;;;;;;;19.83;100.00;100151.25;3053545;19;1181;-49
2022/08/24 00:37:35;;;;;;;;;;;;;;;19.82;100.00;100146.84;3054775;19;1010;-51
2022/08/24 00:38:37;;;;;;;;;;;;;;;19.78;100.00;100152.59;3049130;19;1838;-49
2022/08/24 00:39:42;;;;;;;;;;;;;;;19.76;100.00;100149.22;3047878;19;924;-49
2022/08/24 00:40:46;;;;;;;;;;;;;;;19.74;100.00;100151.22;3046190;19;1178;-50
2022/08/24 00:41:51;;;;;;;;;;;;;;;19.71;100.00;100146.13;3047422;19;1385;-50
2022/08/24 00:42:54;;;;;;;;;;;;;;;19.68;100.00;100143.72;3050086;19;965;-49
2022/08/24 00:44:00;;;;;;;;;;;;;;;19.67;100.00;100144.75;3049164;19;1164;-50
2022/08/24 00:45:02;;;;;;;;;;;;;;;19.65;100.00;100149.50;3049221;19;1372;-49
2022/08/24 00:46:09;;;;;;;;;;;;;;;19.62;100.00;100141.69;3053759;19;1156;-50
2022/08/24 00:47:16;;;;;;;;;;;;;;;19.60;100.00;100143.69;3053842;19;992;-49
2022/08/24 00:48:19;;;;;;;;;;;;;;;19.59;100.00;100150.13;3053469;19;1219;-49
2022/08/24 00:49:26;;;;;;;;;;;;;;;19.57;100.00;100144.00;3053617;19;1161;-50
2022/08/24 00:50:34;;;;;;;;;;;;;;;19.55;100.00;100139.78;3053120;19;1171;-50
2022/08/24 00:51:39;;;;;;;;;;;;;;;19.54;100.00;100140.78;3053623;19;1012;-50
2022/08/24 00:52:43;;;;;;;;;;;;;;;19.51;100.00;100144.66;3053541;19;1035;-49
2022/08/24 00:53:49;;;;;;;;;;;;;;;19.51;100.00;100133.84;3054571;19;1058;-49
2022/08/24 00:54:55;;;;;;;;;;;;;;;19.48;100.00;100136.81;3053831;19;1174;-49
2022/08/24 00:56:01;;;;;;;;;;;;;;;19.48;100.00;100142.25;3053617;19;1245;-49
2022/08/24 00:57:03;;;;;;;;;;;;;;;19.45;100.00;100129.00;3053928;19;1091;-50
2022/08/24 00:58:10;;;;;;;;;;;;;;;19.43;100.00;100136.47;3053820;19;1849;-49
2022/08/24 00:59:21;;;;;;;;;;;;;;;19.41;100.00;100133.06;3053905;19;1322;-50
2022/08/24 01:00:27;;;;;;;;;;;;;;;19.38;100.00;100127.97;3055301;19;1196;-50
2022/08/24 01:01:28;;;;;;;;;;;;;;;19.36;100.00;100133.53;3050138;19;1187;-50
2022/08/24 01:02:34;;;;;;;;;;;;;;;19.34;100.00;100140.13;3051133;19;1007;-49
2022/08/24 01:03:37;;;;;;;;;;;;;;;19.33;100.00;100133.00;3050282;19;1036;-50
2022/08/24 01:04:44;;;;;;;;;;;;;;;19.31;100.00;100132.34;3051628;19;1609;-49
2022/08/24 01:05:47;;;;;;;;;;;;;;;19.29;100.00;100134.34;3052053;19;982;-49
2022/08/24 01:06:52;;;;;;;;;;;;;;;19.27;100.00;100122.84;3051976;19;973;-50
2022/08/24 01:07:54;;;;;;;;;;;;;;;19.25;100.00;100124.84;3053456;19;1002;-49
2022/08/24 01:08:58;;;;;;;;;;;;;;;19.23;100.00;100118.72;3056722;19;1234;-50
2022/08/24 01:10:01;;;;;;;;;;;;;;;19.21;100.00;100116.19;3057218;19;1074;-49
2022/08/24 01:11:08;;;;;;;;;;;;;;;19.20;100.00;100109.06;3056191;19;1067;-49
2022/08/24 01:12:13;;;;;;;;;;;;;;;19.19;100.00;100111.97;3056803;19;1080;-50
2022/08/24 01:13:18;;;;;;;;;;;;;;;19.19;100.00;100111.97;3056565;19;1711;-49
2022/08/24 01:14:20;;;;;;;;;;;;;;;19.17;100.00;100116.69;3056534;19;1011;-50
2022/08/24 01:15:24;;;;;;;;;;;;;;;19.18;100.00;100115.69;3058020;19;1137;-49
2022/08/24 01:19:01;;;;;;;;;;;;;;;19.14;100.00;100108.88;3055625;19;1865;-50
2022/08/24 01:20:06;;;;;;;;;;;;;;;19.13;100.00;100112.59;3056401;19;1063;-49
2022/08/24 01:21:13;;;;;;;;;;;;;;;19.12;100.00;100119.00;3056201;19;1266;-49
2022/08/24 01:22:23;;;;;;;;;;;;;;;19.09;100.00;100117.44;3056753;19;1088;-50
2022/08/24 01:23:25;;;;;;;;;;;;;;;19.06;100.00;100118.66;3052156;19;1204;-49
2022/08/24 01:24:39;;;;;;;;;;;;;;;19.08;100.00;100116.59;3049333;19;1271;-49
2022/08/24 01:25:42;;;;;;;;;;;;;;;19.06;100.00;100128.59;3048661;19;1332;-50
2022/08/24 01:26:50;;;;;;;;;;;;;;;19.03;100.00;100116.25;3051069;19;1007;-50
2022/08/24 01:27:53;;;;;;;;;;;;;;;19.03;100.00;100121.66;3051023;19;1194;-49
2022/08/24 01:28:59;;;;;;;;;;;;;;;19.03;100.00;100123.50;3052677;19;1259;-49
2022/08/24 01:30:04;;;;;;;;;;;;;;;19.03;100.00;100123.50;3051392;19;1008;-50
2022/08/24 01:31:08;;;;;;;;;;;;;;;19.03;100.00;100129.75;3056771;19;1752;-50
2022/08/24 01:32:11;;;;;;;;;;;;;;;19.01;100.00;100120.97;3057888;19;931;-49
2022/08/24 01:33:27;;;;;;;;;;;;;;;19.01;100.00;100123.66;3057462;19;964;-49
2022/08/24 01:34:28;;;;;;;;;;;;;;;19.02;100.00;100114.53;3056895;19;1046;-49
2022/08/24 01:35:34;;;;;;;;;;;;;;;19.01;100.00;100115.53;3056673;19;964;-50
2022/08/24 01:36:40;;;;;;;;;;;;;;;19.03;100.00;100118.94;3056734;19;1248;-50
2022/08/24 01:37:44;;;;;;;;;;;;;;;19.04;100.00;100115.25;3056377;19;1079;-51
2022/08/24 01:38:46;;;;;;;;;;;;;;;19.03;100.00;100110.84;3056428;19;1856;-49
2022/08/24 01:39:52;;;;;;;;;;;;;;;19.04;100.00;100104.41;3055807;19;1095;-49
2022/08/24 01:40:56;;;;;;;;;;;;;;;19.03;100.00;100113.53;3056562;19;1522;-50
2022/08/24 01:42:01;;;;;;;;;;;;;;;19.02;100.00;100108.28;3055377;19;1074;-49
2022/08/24 01:43:04;;;;;;;;;;;;;;;19.01;100.00;100115.53;3056880;19;1082;-50
2022/08/24 01:44:08;;;;;;;;;;;;;;;19.00;100.00;100119.25;3056366;19;957;-49
2022/08/24 01:45:11;;;;;;;;;;;;;;;18.99;100.00;100114.00;3056561;19;1170;-49
2022/08/24 01:46:17;;;;;;;;;;;;;;;18.97;100.00;100116.84;3048755;19;874;-50
2022/08/24 01:47:19;;;;;;;;;;;;;;;18.97;100.00;100114.16;3048785;19;1071;-50
2022/08/24 01:48:24;;;;;;;;;;;;;;;18.97;100.00;100116.84;3048920;19;973;-49
2022/08/24 01:49:28;;;;;;;;;;;;;;;18.97;100.00;100116.84;3051338;19;1318;-50
2022/08/24 01:50:35;;;;;;;;;;;;;;;18.96;100.00;100120.56;3051269;19;1177;-50
2022/08/24 01:51:37;;;;;;;;;;;;;;;18.97;100.00;100114.16;3051768;19;902;-50
2022/08/24 01:52:43;;;;;;;;;;;;;;;18.97;100.00;100116.84;3051760;19;1226;-51
2022/08/24 01:54:08;;;;;;;;;;;;;;;18.97;100.00;100106.03;3056420;19;1056;-49
2022/08/24 01:55:11;;;;;;;;;;;;;;;18.98;100.00;100113.16;3055762;19;1240;-49
2022/08/24 01:56:18;;;;;;;;;;;;;;;18.99;100.00;100111.28;3056343;19;990;-50
2022/08/24 01:57:25;;;;;;;;;;;;;;;18.99;100.00;100114.00;3056446;19;1081;-49
2022/08/24 01:58:33;;;;;;;;;;;;;;;18.98;100.00;100109.59;3055585;19;960;-50
2022/08/24 01:59:35;;;;;;;;;;;;;;;18.99;100.00;100112.16;3055249;19;1844;-49
2022/08/24 02:00:39;;;;;;;;;;;;;;;18.99;100.00;100101.31;3056361;19;1233;-49
2022/08/24 02:01:46;;;;;;;;;;;;;;;19.00;100.00;100104.88;3056505;19;915;-49
2022/08/24 02:02:50;;;;;;;;;;;;;;;19.00;100.00;100103.03;3056199;19;920;-49
2022/08/24 02:03:52;;;;;;;;;;;;;;;18.99;100.00;100095.91;3056053;19;1134;-49
2022/08/24 02:04:58;;;;;;;;;;;;;;;19.01;100.00;100093.91;3055953;19;1155;-49
2022/08/24 02:06:00;;;;;;;;;;;;;;;19.00;100.00;100108.44;3056078;19;1005;-50
2022/08/24 02:07:08;;;;;;;;;;;;;;;19.00;100.00;100108.44;3056370;19;1007;-50
2022/08/24 02:08:10;;;;;;;;;;;;;;;18.91;100.00;100086.91;3051825;19;1089;-51
2022/08/24 02:09:14;;;;;;;;;;;;;;;19.00;100.00;100108.44;3048756;19;1223;-50
2022/08/24 02:10:16;;;;;;;;;;;;;;;19.01;100.00;100104.72;3049007;19;952;-49
2022/08/24 02:11:26;;;;;;;;;;;;;;;19.00;100.00;100111.13;3046799;19;1415;-49
2022/08/24 02:12:27;;;;;;;;;;;;;;;19.00;100.00;100107.59;3051383;19;976;-50
2022/08/24 02:13:33;;;;;;;;;;;;;;;19.00;100.00;100118.41;3050583;19;1140;-49
2022/08/24 02:14:35;;;;;;;;;;;;;;;19.00;100.00;100121.97;3051484;19;1256;-50
2022/08/24 02:15:41;;;;;;;;;;;;;;;19.00;100.00;100116.56;3054134;19;1783;-50
2022/08/24 02:16:48;;;;;;;;;;;;;;;18.99;100.00;100122.97;3056238;19;885;-48
2022/08/24 02:18:00;;;;;;;;;;;;;;;18.97;100.00;100122.25;3055226;19;1067;-50
2022/08/24 02:19:02;;;;;;;;;;;;;;;18.96;100.00;100123.28;3055597;19;948;-49
2022/08/24 02:20:07;;;;;;;;;;;;;;;18.96;100.00;100120.56;3054590;19;1857;-50
2022/08/24 02:21:10;;;;;;;;;;;;;;;18.94;100.00;100130.72;3056144;19;978;-49
2022/08/24 02:22:14;;;;;;;;;;;;;;;18.92;100.00;100124.59;3055835;19;1164;-49
2022/08/24 02:23:16;;;;;;;;;;;;;;;18.91;100.00;100125.63;3056617;19;917;-49
2022/08/24 02:24:20;;;;;;;;;;;;;;;18.90;100.00;100128.47;3055855;19;1159;-49
2022/08/24 02:25:23;;;;;;;;;;;;;;;18.89;100.00;100121.34;3055964;19;1030;-49
2022/08/24 02:26:28;;;;;;;;;;;;;;;18.88;100.00;100130.47;3056034;19;905;-50
2022/08/24 02:27:32;;;;;;;;;;;;;;;18.88;100.00;100136.75;3055843;19;1138;-49
2022/08/24 02:28:37;;;;;;;;;;;;;;;18.88;100.00;100141.28;3055563;19;1092;-51
2022/08/24 02:29:39;;;;;;;;;;;;;;;18.87;100.00;100134.19;3056621;19;1066;-49
2022/08/24 02:30:43;;;;;;;;;;;;;;;18.86;100.00;100136.03;3050857;19;1164;-49
2022/08/24 02:31:45;;;;;;;;;;;;;;;18.86;100.00;100135.19;3048165;19;1192;-49
2022/08/24 02:32:50;;;;;;;;;;;;;;;18.85;100.00;100136.19;3047730;19;1683;-50
2022/08/24 02:33:51;;;;;;;;;;;;;;;18.84;100.00;100134.50;3048905;19;1331;-50
2022/08/24 02:34:56;;;;;;;;;;;;;;;18.83;100.00;100133.66;3050920;19;1152;-50
2022/08/24 02:36:00;;;;;;;;;;;;;;;18.83;100.00;100138.22;3051219;19;1254;-49
2022/08/24 02:37:04;;;;;;;;;;;;;;;18.80;100.00;100133.97;3051062;19;1169;-49
2022/08/24 02:38:09;;;;;;;;;;;;;;;18.79;100.00;100132.28;3054076;19;1271;-49
2022/08/24 02:39:12;;;;;;;;;;;;;;;18.80;100.00;100133.97;3055157;19;1358;-49
2022/08/24 02:40:17;;;;;;;;;;;;;;;18.81;100.00;100140.22;3054663;19;1851;-49
2022/08/24 02:41:19;;;;;;;;;;;;;;;18.79;100.00;100140.38;3055844;19;931;-49
2022/08/24 02:42:24;;;;;;;;;;;;;;;18.80;100.00;100149.34;3054650;19;1163;-49
2022/08/24 02:43:26;;;;;;;;;;;;;;;18.79;100.00;100140.38;3055475;19;1075;-49
2022/08/24 02:44:31;;;;;;;;;;;;;;;18.80;100.00;100138.53;3055328;19;1076;-49
2022/08/24 02:45:37;;;;;;;;;;;;;;;18.80;100.00;100144.78;3055677;19;1020;-48
2022/08/24 02:46:41;;;;;;;;;;;;;;;18.79;100.00;100153.91;3055039;19;1639;-50
2022/08/24 02:47:44;;;;;;;;;;;;;;;18.77;100.00;100147.78;3055765;19;1111;-49
2022/08/24 02:48:49;;;;;;;;;;;;;;;18.77;100.00;100139.69;3054251;19;1191;-51
2022/08/24 02:50:16;;;;;;;;;;;;;;;18.77;100.00;100139.69;3054881;19;1202;-49
2022/08/24 02:51:22;;;;;;;;;;;;;;;18.77;100.00;100145.09;3052596;19;1549;-49
2022/08/24 02:52:29;;;;;;;;;;;;;;;18.76;100.00;100147.94;3054558;19;1110;-50
2022/08/24 02:53:31;;;;;;;;;;;;;;;18.76;100.00;100143.38;3048147;19;1141;-50
2022/08/24 02:54:36;;;;;;;;;;;;;;;18.76;100.00;100142.53;3048006;19;1159;-49
2022/08/24 02:55:39;;;;;;;;;;;;;;;18.74;100.00;100145.38;3047909;19;1436;-50
2022/08/24 02:56:44;;;;;;;;;;;;;;;18.75;100.00;100141.69;3050319;19;979;-50
2022/08/24 02:57:47;;;;;;;;;;;;;;;18.76;100.00;100148.78;3050692;19;1007;-49
2022/08/24 02:58:51;;;;;;;;;;;;;;;18.73;100.00;100143.69;3049682;19;1007;-50
2022/08/24 02:59:55;;;;;;;;;;;;;;;18.73;100.00;100142.84;3050553;19;1858;-49
2022/08/24 03:00:59;;;;;;;;;;;;;;;18.75;100.00;100148.94;3054957;19;972;-50
2022/08/24 03:02:01;;;;;;;;;;;;;;;18.75;100.00;100141.69;3055754;19;943;-49
2022/08/24 03:03:07;;;;;;;;;;;;;;;18.74;100.00;100142.69;3055066;19;979;-50
2022/08/24 03:04:10;;;;;;;;;;;;;;;18.74;100.00;100145.38;3054393;19;1178;-49
2022/08/24 03:05:16;;;;;;;;;;;;;;;18.76;100.00;100146.09;3054858;19;1395;-49
2022/08/24 03:06:18;;;;;;;;;;;;;;;18.75;100.00;100136.28;3055036;19;913;-49
2022/08/24 03:07:23;;;;;;;;;;;;;;;18.76;100.00;100137.97;3055383;19;995;-49
2022/08/24 03:08:25;;;;;;;;;;;;;;;18.76;100.00;100143.38;3056973;19;1145;-50
2022/08/24 03:09:32;;;;;;;;;;;;;;;18.76;100.00;100137.97;3054996;19;1018;-49
2022/08/24 03:10:34;;;;;;;;;;;;;;;18.76;100.00;100137.97;3055275;19;1006;-49
2022/08/24 03:11:40;;;;;;;;;;;;;;;18.76;100.00;100131.72;3054514;19;1147;-50
2022/08/24 03:12:46;;;;;;;;;;;;;;;18.79;100.00;100137.69;3054959;19;1672;-50
2022/08/24 03:13:51;;;;;;;;;;;;;;;18.80;100.00;100135.81;3055073;19;1240;-50
2022/08/24 03:14:53;;;;;;;;;;;;;;;18.80;100.00;100133.13;3055231;19;1052;-49
2022/08/24 03:15:59;;;;;;;;;;;;;;;18.80;100.00;100127.72;3047851;19;998;-49
2022/08/24 03:17:04;;;;;;;;;;;;;;;18.81;100.00;100135.66;3048180;19;944;-50
2022/08/24 03:18:06;;;;;;;;;;;;;;;18.82;100.00;100134.66;3047357;19;1393;-50
2022/08/24 03:19:10;;;;;;;;;;;;;;;18.83;100.00;100132.81;3050622;19;1209;-50
2022/08/24 03:20:14;;;;;;;;;;;;;;;18.84;100.00;100134.50;3050039;19;1850;-49
2022/08/24 03:21:18;;;;;;;;;;;;;;;18.86;100.00;100138.75;3050519;19;1166;-49
2022/08/24 03:22:20;;;;;;;;;;;;;;;18.88;100.00;100135.88;3049270;19;1131;-49
2022/08/24 03:23:26;;;;;;;;;;;;;;;18.90;100.00;100131.16;3054514;19;908;-49
2022/08/24 03:24:34;;;;;;;;;;;;;;;18.92;100.00;100138.13;3055474;19;1066;-50
2022/08/24 03:25:39;;;;;;;;;;;;;;;18.94;100.00;100122.59;3054669;19;971;-51
2022/08/24 03:26:41;;;;;;;;;;;;;;;18.97;100.00;100134.94;3054357;19;1166;-49
2022/08/24 03:27:48;;;;;;;;;;;;;;;18.94;100.00;100125.31;3055539;19;958;-50
2022/08/24 03:28:51;;;;;;;;;;;;;;;19.01;100.00;100126.38;3054661;19;1253;-50
2022/08/24 03:29:56;;;;;;;;;;;;;;;19.02;100.00;100132.63;3054677;19;1148;-50
2022/08/24 03:30:58;;;;;;;;;;;;;;;19.04;100.00;100141.44;3055065;19;1139;-50
2022/08/24 03:32:03;;;;;;;;;;;;;;;19.06;100.00;100134.03;3054749;19;1055;-48
2022/08/24 03:33:06;;;;;;;;;;;;;;;19.06;100.00;100124.06;3054874;19;894;-49
2022/08/24 03:34:12;;;;;;;;;;;;;;;19.11;100.00;100141.66;3055081;19;1046;-49
2022/08/24 03:35:15;;;;;;;;;;;;;;;19.13;100.00;100131.53;3055038;19;973;-49
2022/08/24 03:36:19;;;;;;;;;;;;;;;19.14;100.00;100141.34;3054826;19;969;-50
2022/08/24 03:37:21;;;;;;;;;;;;;;;19.15;100.00;100138.47;3054905;19;981;-49
2022/08/24 03:38:27;;;;;;;;;;;;;;;19.19;100.00;100144.44;3048075;19;1223;-50
2022/08/24 03:39:29;;;;;;;;;;;;;;;19.21;100.00;100142.38;3047133;19;1156;-49
2022/08/24 03:40:34;;;;;;;;;;;;;;;19.23;100.00;100140.38;3046721;19;1877;-49
2022/08/24 03:41:36;;;;;;;;;;;;;;;19.28;100.00;100146.19;3048918;19;1392;-51
2022/08/24 03:42:41;;;;;;;;;;;;;;;19.31;100.00;100153.97;3049627;19;1189;-51
2022/08/24 03:43:46;;;;;;;;;;;;;;;19.35;100.00;100149.94;3049433;19;1314;-50
2022/08/24 03:44:53;;;;;;;;;;;;;;;19.39;100.00;100154.03;3049102;19;1079;-50
2022/08/24 03:45:54;;;;;;;;;;;;;;;19.41;100.00;100157.44;3054560;19;1089;-49
2022/08/24 03:46:59;;;;;;;;;;;;;;;19.43;100.00;100147.31;3055416;19;975;-50
2022/08/24 03:48:03;;;;;;;;;;;;;;;19.44;100.00;100155.22;3054897;19;1257;-50
2022/08/24 03:49:09;;;;;;;;;;;;;;;19.48;100.00;100165.75;3054313;19;1176;-51
2022/08/24 03:50:11;;;;;;;;;;;;;;;19.50;100.00;100164.63;3053811;19;1864;-50
2022/08/24 03:51:16;;;;;;;;;;;;;;;19.53;100.00;100175.13;3054388;19;1052;-50
2022/08/24 03:52:21;;;;;;;;;;;;;;;19.54;100.00;100170.56;3054222;19;1445;-49
2022/08/24 03:53:28;;;;;;;;;;;;;;;19.57;100.00;100170.22;3053974;19;1758;-50
2022/08/24 03:54:30;;;;;;;;;;;;;;;19.58;100.00;100172.78;3054688;19;1106;-50
2022/08/24 03:55:35;;;;;;;;;;;;;;;19.62;100.00;100174.16;3054623;19;1204;-49
2022/08/24 03:56:36;;;;;;;;;;;;;;;19.65;100.00;100183.84;3054625;19;1391;-50
2022/08/24 03:57:41;;;;;;;;;;;;;;;19.67;100.00;100188.09;3054205;19;1082;-50
2022/08/24 03:58:43;;;;;;;;;;;;;;;19.70;100.00;100181.47;3054447;19;951;-49
2022/08/24 03:59:48;;;;;;;;;;;;;;;19.73;100.00;100190.13;3053957;19;1700;-49
2022/08/24 04:00:50;;;;;;;;;;;;;;;19.76;100.00;100191.69;3048478;19;1870;-50
2022/08/24 04:01:56;;;;;;;;;;;;;;;19.78;100.00;100184.25;3046021;19;909;-50
2022/08/24 04:02:59;;;;;;;;;;;;;;;19.81;100.00;100192.03;3046898;19;1302;-49
2022/08/24 04:04:05;;;;;;;;;;;;;;;19.83;100.00;100192.72;3049014;19;915;-50
2022/08/24 04:05:11;;;;;;;;;;;;;;;19.85;100.00;100196.13;3049663;19;1190;-50
2022/08/24 04:06:17;;;;;;;;;;;;;;;19.86;100.00;100207.81;3049799;19;944;-50
2022/08/24 04:07:19;;;;;;;;;;;;;;;19.87;100.00;100204.09;3050138;19;1270;-49
2022/08/24 04:08:24;;;;;;;;;;;;;;;19.89;100.00;100219.19;3054686;19;1044;-50
2022/08/24 04:09:26;;;;;;;;;;;;;;;19.89;100.00;100208.34;3054186;19;1201;-49
2022/08/24 04:10:32;;;;;;;;;;;;;;;19.92;100.00;100207.19;3054336;19;1115;-51
2022/08/24 04:11:35;;;;;;;;;;;;;;;19.93;100.00;100211.56;3054298;19;1110;-51
2022/08/24 04:12:44;;;;;;;;;;;;;;;19.95;100.00;100223.09;3054200;19;1067;-49
2022/08/24 04:13:47;;;;;;;;;;;;;;;19.95;100.00;100213.09;3053633;19;908;-49
2022/08/24 04:14:54;;;;;;;;;;;;;;;19.96;100.00;100224.78;3054137;19;1079;-49
2022/08/24 04:16:02;;;;;;;;;;;;;;;19.97;100.00;100226.50;3054222;19;1343;-50
2022/08/24 04:17:07;;;;;;;;;;;;;;;19.98;100.00;100239.03;3052913;19;1385;-50
2022/08/24 04:18:14;;;;;;;;;;;;;;;19.97;100.00;100234.63;3053997;19;1011;-49
2022/08/24 04:19:18;;;;;;;;;;;;;;;19.98;100.00;100234.47;3054074;19;1092;-50
2022/08/24 04:20:22;;;;;;;;;;;;;;;19.98;100.00;100244.44;3053863;19;1125;-50
2022/08/24 04:21:28;;;;;;;;;;;;;;;19.99;100.00;100246.13;3053929;19;1890;-50
2022/08/24 04:22:30;;;;;;;;;;;;;;;20.00;100.00;100256.81;3052033;19;1696;-50
2022/08/24 04:23:35;;;;;;;;;;;;;;;20.01;100.00;100254.97;3047341;19;1189;-49
2022/08/24 04:24:48;;;;;;;;;;;;;;;20.02;100.00;100256.66;3045727;19;1432;-50
2022/08/24 04:25:53;;;;;;;;;;;;;;;20.04;100.00;100252.78;3047340;19;1035;-49
2022/08/24 04:26:55;;;;;;;;;;;;;;;20.06;100.00;100258.03;3049649;19;1326;-50
2022/08/24 04:28:01;;;;;;;;;;;;;;;20.08;100.00;100256.00;3049445;19;1311;-50
2022/08/24 04:29:03;;;;;;;;;;;;;;;20.11;100.00;100264.66;3049060;19;1201;-49
2022/08/24 04:30:15;;;;;;;;;;;;;;;20.16;100.00;100264.19;3051932;19;889;-51
2022/08/24 04:31:34;;;;;;;;;;;;;;;20.22;100.00;100266.25;3053869;19;1211;-51
2022/08/24 04:32:39;;;;;;;;;;;;;;;20.28;100.00;100272.91;3054257;19;1163;-51
2022/08/24 04:33:42;;;;;;;;;;;;;;;20.30;100.00;100277.13;3054311;19;956;-50
2022/08/24 04:34:47;;;;;;;;;;;;;;;20.34;100.00;100273.06;3052241;19;1255;-50
2022/08/24 04:35:49;;;;;;;;;;;;;;;20.38;100.00;100274.50;3054005;19;1682;-49
2022/08/24 04:36:53;;;;;;;;;;;;;;;20.42;100.00;100281.28;3053789;19;1729;-50
2022/08/24 04:37:56;;;;;;;;;;;;;;;20.44;100.00;100281.97;3054576;19;940;-50
2022/08/24 04:39:01;;;;;;;;;;;;;;;20.47;100.00;100278.09;3053921;19;1431;-49
2022/08/24 04:40:24;;;;;;;;;;;;;;;20.51;100.00;100292.16;3053983;19;1066;-51
2022/08/24 04:41:26;;;;;;;;;;;;;;;20.52;100.00;100286.59;3054167;19;1850;-50
2022/08/24 04:42:36;;;;;;;;;;;;;;;20.55;100.00;100296.22;3052860;19;1072;-50
2022/08/24 04:43:38;;;;;;;;;;;;;;;20.56;100.00;100306.91;3054085;19;1046;-49
2022/08/24 04:44:42;;;;;;;;;;;;;;;20.59;100.00;100303.88;3054209;19;941;-51
2022/08/24 04:45:45;;;;;;;;;;;;;;;20.61;100.00;100306.44;3045912;19;1507;-49
2022/08/24 04:46:50;;;;;;;;;;;;;;;20.64;100.00;100314.25;3046279;19;990;-49
2022/08/24 04:47:53;;;;;;;;;;;;;;;20.63;100.00;100304.41;3046330;19;1144;-50
2022/08/24 04:48:59;;;;;;;;;;;;;;;20.72;100.00;100314.28;3048384;19;1473;-49
2022/08/24 04:50:01;;;;;;;;;;;;;;;20.78;100.00;100329.88;3048427;19;2260;-49
2022/08/24 04:51:07;;;;;;;;;;;;;;;20.83;100.00;100332.97;3049245;19;936;-49
2022/08/24 04:52:14;;;;;;;;;;;;;;;20.91;100.00;100335.69;3049908;19;1263;-50
2022/08/24 04:53:19;;;;;;;;;;;;;;;20.99;100.00;100343.03;3054263;19;1165;-51
2022/08/24 04:54:23;;;;;;;;;;;;;;;21.11;100.00;100344.41;3054165;19;1093;-49
2022/08/24 04:55:49;;;;;;;;;;;;;;;21.24;100.00;100347.53;3053091;19;1087;-49
2022/08/24 04:56:52;;;;;;;;;;;;;;;21.32;100.00;100339.41;3053760;19;1790;-49
2022/08/24 04:57:56;;;;;;;;;;;;;;;21.50;100.00;100347.38;3053532;19;1040;-50
2022/08/24 04:58:59;;;;;;;;;;;;;;;21.63;100.00;100347.72;3054076;19;1188;-49
2022/08/24 05:00:04;;;;;;;;;;;;;;;21.75;100.00;100373.53;3053420;19;1043;-50
2022/08/24 05:01:11;;;;;;;;;;;;;;;21.89;100.00;100370.16;3053592;19;909;-49
2022/08/24 05:02:17;;;;;;;;;;;;;;;22.03;100.00;100382.25;3052780;19;1861;-49
2022/08/24 05:03:22;;;;;;;;;;;;;;;22.15;100.00;100408.06;3053881;19;1289;-49
2022/08/24 05:04:27;;;;;;;;;;;;;;;22.27;100.00;100406.69;3053634;19;1722;-50
2022/08/24 05:05:32;;;;;;;;;;;;;;;22.40;100.00;100406.16;3053690;19;1034;-50
2022/08/24 05:06:37;;;;;;;;;;;;;;;22.51;100.00;100424.84;3053583;19;938;-49
2022/08/24 05:07:38;;;;;;;;;;;;;;;22.64;100.00;100444.19;3050365;19;1213;-50
2022/08/24 05:08:45;;;;;;;;;;;;;;;22.78;100.00;100444.53;3047217;19;886;-49
2022/08/24 05:09:48;;;;;;;;;;;;;;;22.90;100.00;100464.91;3046833;19;1103;-51
2022/08/24 05:10:55;;;;;;;;;;;;;;;23.02;100.00;100477.13;3047123;19;1362;-49
2022/08/24 05:11:57;;;;;;;;;;;;;;;23.12;100.00;100483.22;3048003;19;1419;-50
2022/08/24 05:13:04;;;;;;;;;;;;;;;23.18;100.00;100482.50;3048382;19;1008;-49
2022/08/24 05:14:06;;;;;;;;;;;;;;;23.24;100.00;100489.97;3048665;19;1274;-50
2022/08/24 05:15:15;;;;;;;;;;;;;;;23.29;100.00;100495.75;3050061;19;1000;-50
2022/08/24 05:16:17;;;;;;;;;;;;;;;23.31;100.00;100510.00;3050636;19;1865;-50
2022/08/24 05:17:23;;;;;;;;;;;;;;;23.34;100.00;100508.81;3047520;19;1688;-51
2022/08/24 05:18:28;;;;;;;;;;;;;;;23.37;100.00;100504.91;3051506;19;1280;-50
2022/08/24 05:19:33;;;;;;;;;;;;;;;23.38;100.00;100518.34;3052065;19;1296;-50
2022/08/24 05:20:34;;;;;;;;;;;;;;;23.39;100.00;100520.03;3050868;19;2078;-51
2022/08/24 05:21:41;;;;;;;;;;;;;;;23.39;100.00;100517.31;3051157;19;1860;-49
2022/08/24 05:22:43;;;;;;;;;;;;;;;23.39;100.00;100527.38;3050694;19;1859;-50
2022/08/24 05:23:48;;;;;;;;;;;;;;;23.38;100.00;100525.66;3052656;19;1793;-49
2022/08/24 05:24:50;;;;;;;;;;;;;;;23.39;100.00;100530.09;3052090;19;1025;-50
2022/08/24 05:25:54;;;;;;;;;;;;;;;23.38;100.00;100525.66;3051183;19;1676;-50
2022/08/24 05:26:59;;;;;;;;;;;;;;;23.38;100.00;100531.09;3050948;19;1782;-49
2022/08/24 05:28:02;;;;;;;;;;;;;;;23.38;100.00;100531.09;3051871;19;1277;-49
2022/08/24 05:29:07;;;;;;;;;;;;;;;23.38;100.00;100525.66;3051646;19;1895;-50
2022/08/24 05:30:16;;;;;;;;;;;;;;;23.37;100.00;100527.53;3046442;19;1484;-49
2022/08/24 05:31:21;;;;;;;;;;;;;;;23.36;100.00;100514.94;3043502;19;1373;-49
2022/08/24 05:32:26;;;;;;;;;;;;;;;23.33;100.00;100516.13;3045248;19;1416;-50
2022/08/24 05:33:28;;;;;;;;;;;;;;;23.32;100.00;100517.16;3045414;19;1309;-49
2022/08/24 05:34:33;;;;;;;;;;;;;;;23.31;100.00;100520.06;3047349;19;1832;-50
2022/08/24 05:35:39;;;;;;;;;;;;;;;23.29;100.00;100522.13;3046267;19;1294;-49